createdAt,value
2018-07-25T00:00:14.950Z,18.69
2018-07-25T00:01:14.870Z,18.67
2018-07-25T00:02:14.811Z,18.65
2018-07-25T00:03:14.731Z,18.61
2018-07-25T00:04:14.662Z,18.55
2018-07-25T00:05:14.582Z,18.59
2018-07-25T00:06:14.525Z,18.49
2018-07-25T00:07:14.439Z,18.44
2018-07-25T00:08:14.374Z,18.43
2018-07-25T00:09:14.293Z,18.44
2018-07-25T00:10:14.237Z,18.42
2018-07-25T00:11:14.149Z,18.37
2018-07-25T00:12:14.085Z,18.35
2018-07-25T00:13:14.010Z,18.34
2018-07-25T00:14:13.943Z,18.31
2018-07-25T00:15:13.868Z,18.28
2018-07-25T00:16:13.793Z,18.35
2018-07-25T00:17:13.717Z,18.29
2018-07-25T00:18:13.657Z,18.32
2018-07-25T00:19:13.570Z,18.32
2018-07-25T00:20:13.505Z,18.34
2018-07-25T00:21:13.428Z,18.31
2018-07-25T00:22:13.362Z,18.42
2018-07-25T00:23:13.291Z,18.34
2018-07-25T00:24:13.217Z,18.28
2018-07-25T00:25:13.137Z,18.28
2018-07-25T00:26:13.074Z,18.14
2018-07-25T00:27:12.987Z,18.06
2018-07-25T00:28:12.930Z,18.03
2018-07-25T00:29:12.853Z,18.02
2018-07-25T00:30:12.785Z,17.94
2018-07-25T00:31:12.704Z,17.92
2018-07-25T00:32:12.644Z,17.89
2018-07-25T00:33:12.560Z,17.85
2018-07-25T00:34:12.500Z,17.88
2018-07-25T00:35:12.417Z,17.96
2018-07-25T00:36:12.389Z,17.91
2018-07-25T00:37:12.272Z,18.04
2018-07-25T00:38:12.206Z,18.09
2018-07-25T00:39:12.123Z,18.06
2018-07-25T00:40:12.059Z,18.06
2018-07-25T00:41:11.979Z,18.09
2018-07-25T00:42:11.911Z,18.06
2018-07-25T00:43:11.835Z,17.91
2018-07-25T00:44:11.771Z,18.06
2018-07-25T00:45:11.689Z,17.95
2018-07-25T00:46:11.625Z,17.95
2018-07-25T00:47:11.541Z,18.03
2018-07-25T00:48:11.487Z,18.02
2018-07-25T00:49:11.397Z,17.91
2018-07-25T00:50:11.335Z,17.94
2018-07-25T00:51:11.252Z,17.91
2018-07-25T00:52:11.189Z,17.95
2018-07-25T00:53:11.109Z,17.88
2018-07-25T00:54:11.051Z,17.85
2018-07-25T00:55:10.969Z,17.88
2018-07-25T00:56:10.900Z,17.85
2018-07-25T00:57:10.819Z,17.82
2018-07-25T00:58:10.753Z,17.76
2018-07-25T00:59:10.675Z,17.77
2018-07-25T01:00:10.608Z,17.74
2018-07-25T01:01:10.527Z,17.63
2018-07-25T01:02:10.459Z,17.69
2018-07-25T01:03:10.381Z,17.66
2018-07-25T01:04:10.317Z,17.64
2018-07-25T01:05:10.249Z,17.67
2018-07-25T01:06:10.168Z,17.54
2018-07-25T01:07:10.090Z,17.54
2018-07-25T01:08:10.028Z,17.67
2018-07-25T01:09:09.942Z,17.55
2018-07-25T01:10:09.881Z,17.55
2018-07-25T01:11:09.799Z,17.46
2018-07-25T01:12:09.736Z,17.55
2018-07-25T01:13:09.653Z,17.53
2018-07-25T01:14:09.588Z,17.38
2018-07-25T01:15:09.510Z,17.39
2018-07-25T01:16:09.439Z,17.46
2018-07-25T01:17:09.364Z,17.40
2018-07-25T01:18:09.297Z,17.46
2018-07-25T01:19:09.217Z,17.28
2018-07-25T01:20:09.156Z,17.38
2018-07-25T01:21:09.069Z,17.29
2018-07-25T01:22:09.006Z,17.30
2018-07-25T01:23:08.927Z,17.20
2018-07-25T01:24:08.861Z,17.25
2018-07-25T01:25:08.779Z,17.32
2018-07-25T01:26:08.721Z,17.23
2018-07-25T01:27:08.633Z,17.18
2018-07-25T01:28:08.566Z,17.18
2018-07-25T01:29:08.484Z,17.23
2018-07-25T01:30:08.425Z,17.23
2018-07-25T01:31:08.337Z,17.23
2018-07-25T01:32:08.274Z,17.21
2018-07-25T01:33:08.194Z,17.26
2018-07-25T01:34:08.133Z,17.33
2018-07-25T01:35:08.049Z,17.38
2018-07-25T01:36:08.980Z,17.39
2018-07-25T01:37:07.897Z,17.47
2018-07-25T01:38:07.837Z,17.48
2018-07-25T01:39:07.765Z,17.51
2018-07-25T01:40:07.695Z,17.58
2018-07-25T01:41:07.610Z,17.51
2018-07-25T01:42:07.543Z,17.55
2018-07-25T01:43:07.463Z,17.53
2018-07-25T01:44:07.402Z,17.55
2018-07-25T01:45:07.317Z,17.67
2018-07-25T01:46:07.249Z,17.69
2018-07-25T01:47:07.170Z,17.66
2018-07-25T01:48:07.106Z,17.54
2018-07-25T01:49:07.023Z,17.54
2018-07-25T01:50:06.962Z,17.66
2018-07-25T01:51:06.879Z,17.66
2018-07-25T01:52:06.827Z,17.53
2018-07-25T01:53:06.728Z,17.50
2018-07-25T01:54:06.665Z,17.39
2018-07-25T01:55:06.583Z,17.44
2018-07-25T01:56:06.521Z,17.32
2018-07-25T01:57:06.445Z,17.23
2018-07-25T01:58:06.370Z,17.26
2018-07-25T01:59:06.290Z,17.18
2018-07-25T02:00:06.227Z,17.13
2018-07-25T02:01:06.146Z,17.08
2018-07-25T02:02:06.077Z,17.03
2018-07-25T02:03:05.998Z,17.07
2018-07-25T02:04:06.820Z,17.03
2018-07-25T02:05:05.850Z,17.14
2018-07-25T02:06:05.787Z,17.11
2018-07-25T02:07:05.707Z,17.15
2018-07-25T02:08:05.652Z,17.13
2018-07-25T02:09:05.563Z,17.14
2018-07-25T02:10:05.496Z,17.13
2018-07-25T02:11:05.419Z,17.08
2018-07-25T02:12:05.351Z,17.00
2018-07-25T02:13:05.271Z,17.02
2018-07-25T02:14:05.199Z,16.95
2018-07-25T02:15:05.117Z,16.99
2018-07-25T02:16:05.052Z,16.93
2018-07-25T02:17:04.973Z,16.96
2018-07-25T02:18:04.906Z,16.93
2018-07-25T02:19:04.824Z,16.89
2018-07-25T02:20:04.824Z,16.99
2018-07-25T02:21:04.679Z,16.99
2018-07-25T02:22:04.617Z,16.95
2018-07-25T02:23:04.528Z,16.82
2018-07-25T02:24:04.468Z,16.88
2018-07-25T02:25:04.389Z,16.88
2018-07-25T02:26:05.318Z,16.88
2018-07-25T02:27:04.242Z,16.84
2018-07-25T02:28:04.177Z,16.88
2018-07-25T02:29:04.090Z,16.89
2018-07-25T02:30:04.020Z,16.96
2018-07-25T02:31:03.955Z,17.00
2018-07-25T02:32:03.873Z,16.96
2018-07-25T02:33:03.805Z,16.93
2018-07-25T02:34:03.724Z,16.99
2018-07-25T02:35:03.652Z,16.90
2018-07-25T02:36:03.576Z,16.93
2018-07-25T02:37:03.510Z,16.99
2018-07-25T02:38:03.436Z,16.90
2018-07-25T02:39:03.363Z,16.93
2018-07-25T02:40:03.285Z,16.93
2018-07-25T02:41:03.220Z,16.95
2018-07-25T02:42:03.143Z,17.08
2018-07-25T02:43:03.073Z,16.99
2018-07-25T02:44:02.988Z,17.00
2018-07-25T02:45:02.922Z,17.05
2018-07-25T02:46:02.852Z,16.95
2018-07-25T02:47:02.777Z,16.95
2018-07-25T02:48:02.694Z,16.93
2018-07-25T02:49:02.631Z,16.88
2018-07-25T02:50:02.549Z,16.84
2018-07-25T02:51:02.480Z,16.74
2018-07-25T02:52:02.400Z,16.71
2018-07-25T02:53:03.331Z,16.60
2018-07-25T02:54:02.247Z,16.60
2018-07-25T02:55:02.183Z,16.56
2018-07-25T02:56:02.102Z,16.56
2018-07-25T02:57:02.068Z,16.56
2018-07-25T02:58:01.960Z,16.42
2018-07-25T02:59:01.890Z,16.47
2018-07-25T03:00:01.815Z,16.41
2018-07-25T03:01:01.741Z,16.44
2018-07-25T03:02:01.660Z,16.42
2018-07-25T03:03:01.595Z,16.41
2018-07-25T03:04:01.519Z,16.47
2018-07-25T03:05:01.450Z,16.47
2018-07-25T03:06:01.374Z,16.42
2018-07-25T03:07:01.301Z,16.38
2018-07-25T03:08:01.221Z,16.47
2018-07-25T03:09:01.223Z,16.37
2018-07-25T03:10:01.069Z,16.41
2018-07-25T03:11:01.010Z,16.35
2018-07-25T03:12:00.926Z,16.42
2018-07-25T03:13:00.869Z,16.48
2018-07-25T03:14:00.776Z,16.45
2018-07-25T03:15:00.709Z,16.48
2018-07-25T03:16:00.633Z,16.44
2018-07-25T03:17:00.564Z,16.44
2018-07-25T03:18:00.484Z,16.59
2018-07-25T03:19:00.416Z,16.55
2018-07-25T03:20:00.342Z,16.45
2018-07-25T03:21:00.271Z,16.35
2018-07-25T03:22:00.191Z,16.34
2018-07-25T03:23:00.116Z,16.33
2018-07-25T03:24:00.038Z,16.20
2018-07-25T03:24:59.976Z,16.16
2018-07-25T03:25:59.901Z,16.25
2018-07-25T03:26:59.821Z,16.10
2018-07-25T03:27:59.792Z,16.14
2018-07-25T03:28:59.674Z,15.99
2018-07-25T03:29:59.593Z,15.88
2018-07-25T03:30:59.527Z,15.86
2018-07-25T03:31:59.448Z,15.79
2018-07-25T03:32:59.381Z,15.83
2018-07-25T03:33:59.294Z,15.79
2018-07-25T03:34:59.234Z,15.88
2018-07-25T03:35:59.147Z,15.91
2018-07-25T03:36:59.087Z,16.00
2018-07-25T03:37:59.002Z,16.01
2018-07-25T03:38:58.936Z,16.18
2018-07-25T03:39:58.854Z,16.10
2018-07-25T03:40:58.789Z,16.25
2018-07-25T03:41:58.711Z,16.23
2018-07-25T03:42:58.638Z,16.20
2018-07-25T03:43:58.557Z,16.30
2018-07-25T03:44:58.504Z,16.18
2018-07-25T03:45:58.414Z,16.25
2018-07-25T03:46:58.341Z,16.33
2018-07-25T03:47:58.263Z,16.35
2018-07-25T03:48:58.220Z,16.20
2018-07-25T03:49:58.111Z,16.26
2018-07-25T03:50:58.052Z,16.25
2018-07-25T03:51:57.960Z,16.33
2018-07-25T03:52:57.940Z,16.33
2018-07-25T03:53:57.815Z,16.34
2018-07-25T03:54:57.752Z,16.25
2018-07-25T03:55:57.673Z,16.27
2018-07-25T03:56:57.602Z,16.14
2018-07-25T03:57:57.521Z,16.16
2018-07-25T03:58:57.448Z,16.16
2018-07-25T03:59:57.371Z,16.10
2018-07-25T04:00:57.379Z,16.12
2018-07-25T04:01:57.287Z,16.08
2018-07-25T04:02:57.186Z,16.12
2018-07-25T04:03:57.073Z,16.03
2018-07-25T04:04:57.100Z,16.01
2018-07-25T04:05:56.926Z,16.01
2018-07-25T04:06:56.907Z,16.01
2018-07-25T04:07:56.779Z,16.04
2018-07-25T04:08:56.817Z,16.04
2018-07-25T04:09:56.628Z,16.12
2018-07-25T04:10:56.624Z,16.06
2018-07-25T04:11:56.488Z,16.15
2018-07-25T04:12:56.433Z,16.20
2018-07-25T04:13:56.331Z,16.23
2018-07-25T04:14:56.345Z,16.20
2018-07-25T04:15:56.180Z,16.15
2018-07-25T04:16:56.114Z,16.29
2018-07-25T04:17:56.033Z,16.29
2018-07-25T04:18:55.968Z,16.37
2018-07-25T04:19:55.886Z,16.33
2018-07-25T04:20:55.873Z,16.35
2018-07-25T04:21:55.738Z,16.35
2018-07-25T04:22:55.687Z,16.25
2018-07-25T04:23:55.590Z,16.14
2018-07-25T04:24:55.526Z,16.16
2018-07-25T04:25:55.439Z,16.16
2018-07-25T04:26:55.378Z,16.22
2018-07-25T04:27:55.292Z,16.16
2018-07-25T04:28:55.229Z,16.14
2018-07-25T04:29:55.148Z,16.30
2018-07-25T04:30:55.122Z,16.27
2018-07-25T04:31:54.995Z,16.35
2018-07-25T04:32:55.034Z,16.38
2018-07-25T04:33:54.847Z,16.35
2018-07-25T04:34:55.781Z,16.41
2018-07-25T04:35:54.702Z,16.38
2018-07-25T04:36:54.630Z,16.45
2018-07-25T04:37:54.550Z,16.40
2018-07-25T04:38:54.557Z,16.42
2018-07-25T04:39:54.406Z,16.47
2018-07-25T04:40:54.337Z,16.48
2018-07-25T04:41:54.251Z,16.59
2018-07-25T04:42:54.192Z,16.52
2018-07-25T04:43:54.103Z,16.60
2018-07-25T04:44:55.037Z,16.65
2018-07-25T04:45:53.958Z,16.62
2018-07-25T04:46:53.894Z,16.67
2018-07-25T04:47:53.836Z,16.66
2018-07-25T04:48:53.742Z,16.70
2018-07-25T04:49:53.660Z,16.74
2018-07-25T04:50:53.616Z,16.74
2018-07-25T04:51:53.513Z,16.67
2018-07-25T04:52:53.525Z,16.78
2018-07-25T04:53:53.358Z,16.73
2018-07-25T04:54:54.296Z,16.82
2018-07-25T04:55:53.215Z,16.88
2018-07-25T04:56:53.150Z,16.93
2018-07-25T04:57:53.098Z,16.92
2018-07-25T04:58:57.991Z,16.93
2018-07-25T04:59:52.923Z,16.96
2018-07-25T05:00:52.855Z,16.99
2018-07-25T05:01:52.774Z,16.99
2018-07-25T05:02:52.773Z,16.99
2018-07-25T05:03:52.621Z,17.14
2018-07-25T05:04:52.554Z,17.03
2018-07-25T05:05:52.474Z,17.08
2018-07-25T05:06:52.491Z,17.14
2018-07-25T05:07:52.322Z,17.18
2018-07-25T05:08:52.303Z,17.21
2018-07-25T05:09:52.176Z,17.23
2018-07-25T05:10:52.113Z,17.20
2018-07-25T05:11:52.026Z,17.20
2018-07-25T05:12:51.960Z,17.18
2018-07-25T05:13:51.881Z,17.20
2018-07-25T05:14:51.832Z,17.26
2018-07-25T05:15:51.732Z,17.28
2018-07-25T05:16:51.675Z,17.30
2018-07-25T05:17:51.643Z,17.29
2018-07-25T05:18:51.522Z,17.46
2018-07-25T05:19:51.434Z,17.54
2018-07-25T05:20:51.377Z,17.54
2018-07-25T05:21:51.291Z,17.53
2018-07-25T05:22:51.225Z,17.51
2018-07-25T05:23:51.143Z,17.60
2018-07-25T05:24:51.079Z,17.57
2018-07-25T05:25:50.994Z,17.67
2018-07-25T05:26:51.929Z,17.67
2018-07-25T05:27:50.846Z,17.73
2018-07-25T05:28:50.780Z,17.66
2018-07-25T05:29:50.701Z,17.67
2018-07-25T05:30:50.635Z,17.69
2018-07-25T05:31:50.554Z,17.69
2018-07-25T05:32:50.492Z,17.79
2018-07-25T05:33:50.405Z,17.79
2018-07-25T05:34:50.341Z,17.82
2018-07-25T05:35:50.256Z,17.88
2018-07-25T05:36:50.194Z,17.91
2018-07-25T05:37:50.106Z,17.95
2018-07-25T05:38:50.051Z,17.96
2018-07-25T05:39:49.966Z,18.00
2018-07-25T05:40:49.899Z,17.95
2018-07-25T05:41:49.817Z,18.10
2018-07-25T05:42:49.750Z,18.14
2018-07-25T05:43:49.714Z,18.06
2018-07-25T05:44:49.605Z,18.06
2018-07-25T05:45:49.523Z,18.21
2018-07-25T05:46:49.452Z,18.24
2018-07-25T05:47:49.378Z,18.39
2018-07-25T05:48:49.388Z,18.31
2018-07-25T05:49:49.228Z,18.39
2018-07-25T05:50:49.201Z,18.49
2018-07-25T05:51:49.081Z,18.42
2018-07-25T05:52:49.016Z,18.59
2018-07-25T05:53:48.936Z,18.62
2018-07-25T05:54:57.862Z,18.61
2018-07-25T05:55:49.420Z,18.68
2018-07-25T05:56:48.750Z,18.74
2018-07-25T05:57:48.642Z,18.76
2018-07-25T05:58:48.699Z,18.86
2018-07-25T05:59:48.501Z,18.79
2018-07-25T06:00:48.444Z,18.94
2018-07-25T06:01:48.348Z,19.01
2018-07-25T06:02:48.400Z,19.06
2018-07-25T06:03:48.204Z,19.08
2018-07-25T06:04:48.137Z,19.17
2018-07-25T06:05:48.946Z,19.21
2018-07-25T06:06:47.990Z,19.32
2018-07-25T06:07:47.950Z,19.31
2018-07-25T06:08:47.918Z,19.36
2018-07-25T06:09:47.763Z,19.45
2018-07-25T06:10:47.798Z,19.53
2018-07-25T06:11:47.619Z,19.48
2018-07-25T06:12:47.560Z,19.50
2018-07-25T06:13:47.473Z,19.68
2018-07-25T06:14:47.405Z,19.65
2018-07-25T06:15:47.329Z,19.76
2018-07-25T06:16:47.269Z,19.80
2018-07-25T06:17:47.177Z,19.90
2018-07-25T06:18:47.112Z,19.91
2018-07-25T06:19:47.036Z,20.06
2018-07-25T06:20:46.971Z,19.98
2018-07-25T06:21:46.894Z,20.05
2018-07-25T06:22:46.822Z,20.10
2018-07-25T06:23:46.750Z,20.24
2018-07-25T06:24:46.688Z,20.26
2018-07-25T06:25:46.639Z,20.34
2018-07-25T06:26:46.534Z,20.49
2018-07-25T06:27:46.455Z,20.49
2018-07-25T06:28:46.386Z,20.46
2018-07-25T06:29:46.311Z,20.59
2018-07-25T06:30:46.245Z,20.66
2018-07-25T06:31:46.162Z,20.65
2018-07-25T06:32:46.100Z,20.71
2018-07-25T06:33:46.023Z,20.71
2018-07-25T06:34:45.980Z,20.76
2018-07-25T06:35:45.875Z,20.79
2018-07-25T06:36:45.809Z,20.90
2018-07-25T06:37:45.727Z,20.94
2018-07-25T06:38:45.665Z,21.01
2018-07-25T06:39:45.589Z,21.09
2018-07-25T06:40:45.527Z,21.06
2018-07-25T06:41:45.440Z,21.08
2018-07-25T06:42:45.379Z,21.11
2018-07-25T06:43:45.364Z,21.24
2018-07-25T06:44:45.237Z,21.26
2018-07-25T06:45:45.152Z,21.44
2018-07-25T06:46:45.091Z,21.31
2018-07-25T06:47:45.011Z,21.38
2018-07-25T06:48:44.952Z,21.41
2018-07-25T06:49:44.866Z,21.42
2018-07-25T06:50:44.825Z,21.42
2018-07-25T06:51:44.720Z,21.54
2018-07-25T06:52:44.654Z,21.59
2018-07-25T06:53:44.578Z,21.66
2018-07-25T06:54:44.509Z,21.79
2018-07-25T06:55:44.430Z,21.81
2018-07-25T06:56:44.374Z,21.86
2018-07-25T06:57:44.290Z,21.97
2018-07-25T06:58:44.226Z,21.97
2018-07-25T06:59:44.144Z,22.00
2018-07-25T07:00:44.099Z,22.08
2018-07-25T07:01:44.001Z,22.08
2018-07-25T07:02:43.941Z,22.13
2018-07-25T07:03:43.862Z,22.23
2018-07-25T07:04:43.795Z,22.32
2018-07-25T07:05:43.722Z,22.39
2018-07-25T07:06:43.760Z,22.35
2018-07-25T07:07:43.572Z,22.42
2018-07-25T07:08:43.519Z,22.53
2018-07-25T07:09:43.436Z,22.77
2018-07-25T07:10:43.364Z,22.74
2018-07-25T07:11:43.295Z,22.83
2018-07-25T07:12:43.226Z,22.92
2018-07-25T07:13:43.151Z,23.00
2018-07-25T07:14:43.082Z,23.11
2018-07-25T07:15:43.004Z,23.15
2018-07-25T07:16:42.942Z,23.17
2018-07-25T07:17:42.867Z,23.45
2018-07-25T07:18:42.801Z,23.42
2018-07-25T07:19:42.724Z,23.55
2018-07-25T07:20:42.659Z,23.58
2018-07-25T07:21:42.581Z,23.70
2018-07-25T07:22:42.523Z,23.85
2018-07-25T07:23:42.436Z,23.87
2018-07-25T07:24:42.375Z,24.00
2018-07-25T07:25:42.346Z,24.02
2018-07-25T07:26:42.237Z,24.15
2018-07-25T07:27:42.153Z,24.08
2018-07-25T07:28:42.093Z,24.15
2018-07-25T07:29:42.017Z,24.20
2018-07-25T07:30:41.955Z,24.30
2018-07-25T07:31:41.878Z,24.32
2018-07-25T07:32:41.812Z,24.42
2018-07-25T07:33:41.736Z,24.45
2018-07-25T07:34:41.669Z,24.48
2018-07-25T07:35:41.596Z,24.45
2018-07-25T07:36:41.533Z,24.52
2018-07-25T07:37:41.461Z,24.59
2018-07-25T07:38:41.392Z,24.71
2018-07-25T07:39:41.318Z,24.80
2018-07-25T07:40:41.254Z,24.79
2018-07-25T07:41:41.179Z,24.88
2018-07-25T07:42:41.132Z,24.93
2018-07-25T07:43:41.033Z,25.10
2018-07-25T07:44:41.044Z,25.17
2018-07-25T07:45:40.900Z,25.22
2018-07-25T07:46:40.852Z,25.35
2018-07-25T07:47:40.813Z,25.55
2018-07-25T07:48:40.765Z,25.64
2018-07-25T07:49:40.625Z,25.67
2018-07-25T07:50:40.576Z,25.70
2018-07-25T07:51:40.484Z,25.86
2018-07-25T07:52:40.489Z,25.94
2018-07-25T07:53:40.346Z,26.11
2018-07-25T07:54:40.401Z,26.12
2018-07-25T07:55:40.211Z,26.18
2018-07-25T07:56:40.210Z,26.27
2018-07-25T07:57:40.075Z,26.38
2018-07-25T07:58:40.120Z,26.39
2018-07-25T07:59:39.939Z,26.61
2018-07-25T08:00:39.926Z,26.72
2018-07-25T08:01:39.812Z,26.86
2018-07-25T08:02:39.841Z,26.98
2018-07-25T08:03:39.666Z,27.12
2018-07-25T08:04:39.652Z,27.08
2018-07-25T08:05:39.525Z,27.14
2018-07-25T08:06:39.567Z,27.31
2018-07-25T08:07:39.390Z,27.34
2018-07-25T08:08:39.330Z,27.34
2018-07-25T08:09:39.252Z,27.34
2018-07-25T08:10:39.327Z,27.45
2018-07-25T08:11:39.119Z,27.50
2018-07-25T08:12:39.087Z,27.61
2018-07-25T08:13:38.980Z,27.62
2018-07-25T08:14:39.003Z,27.67
2018-07-25T08:15:38.851Z,27.69
2018-07-25T08:16:38.812Z,27.76
2018-07-25T08:17:38.801Z,27.82
2018-07-25T08:18:38.725Z,27.89
2018-07-25T08:19:38.591Z,27.99
2018-07-25T08:20:38.641Z,28.11
2018-07-25T08:21:38.510Z,28.04
2018-07-25T08:22:38.444Z,28.19
2018-07-25T08:23:38.314Z,28.26
2018-07-25T08:24:38.357Z,28.26
2018-07-25T08:25:38.185Z,28.20
2018-07-25T08:26:38.163Z,28.38
2018-07-25T08:27:38.043Z,28.41
2018-07-25T08:28:38.074Z,28.36
2018-07-25T08:29:37.914Z,28.44
2018-07-25T08:30:37.883Z,28.47
2018-07-25T08:31:37.782Z,28.53
2018-07-25T08:32:37.792Z,28.57
2018-07-25T08:33:37.657Z,28.71
2018-07-25T08:34:37.786Z,28.81
2018-07-25T08:35:37.520Z,28.83
2018-07-25T08:36:37.512Z,28.98
2018-07-25T08:37:37.385Z,29.04
2018-07-25T08:38:37.325Z,29.14
2018-07-25T08:39:37.329Z,28.98
2018-07-25T08:40:37.187Z,29.07
2018-07-25T08:41:38.203Z,29.06
2018-07-25T08:42:37.054Z,29.04
2018-07-25T08:43:42.580Z,29.11
2018-07-25T08:44:36.922Z,29.18
2018-07-25T08:45:36.963Z,29.23
2018-07-25T08:46:36.794Z,29.40
2018-07-25T08:47:36.769Z,29.43
2018-07-25T08:48:36.662Z,29.50
2018-07-25T08:49:36.682Z,29.58
2018-07-25T08:50:36.530Z,29.43
2018-07-25T08:51:36.489Z,29.65
2018-07-25T08:52:36.490Z,29.63
2018-07-25T08:53:36.401Z,29.83
2018-07-25T08:54:36.297Z,29.78
2018-07-25T08:55:36.314Z,30.00
2018-07-25T08:56:36.140Z,29.97
2018-07-25T08:57:36.166Z,30.06
2018-07-25T08:58:36.012Z,30.03
2018-07-25T08:59:36.041Z,29.99
2018-07-25T09:00:35.914Z,30.06
2018-07-25T09:01:35.844Z,30.19
2018-07-25T09:02:35.747Z,30.21
2018-07-25T09:03:35.754Z,30.36
2018-07-25T09:04:35.625Z,30.40
2018-07-25T09:05:35.668Z,30.32
2018-07-25T09:06:35.552Z,30.48
2018-07-25T09:07:35.503Z,30.65
2018-07-25T09:08:35.358Z,30.59
2018-07-25T09:09:35.400Z,30.49
2018-07-25T09:10:35.234Z,30.55
2018-07-25T09:11:35.200Z,30.57
2018-07-25T09:12:35.140Z,30.55
2018-07-25T09:13:35.108Z,30.55
2018-07-25T09:14:34.975Z,30.65
2018-07-25T09:15:35.018Z,30.75
2018-07-25T09:16:34.844Z,30.78
2018-07-25T09:17:34.824Z,30.90
2018-07-25T09:18:34.717Z,31.11
2018-07-25T09:19:34.739Z,31.08
2018-07-25T09:20:34.592Z,31.12
2018-07-25T09:21:34.649Z,31.21
2018-07-25T09:22:34.463Z,31.26
2018-07-25T09:23:34.456Z,31.41
2018-07-25T09:24:34.337Z,31.41
2018-07-25T09:25:34.385Z,31.34
2018-07-25T09:26:34.207Z,31.44
2018-07-25T09:27:34.183Z,31.51
2018-07-25T09:28:34.086Z,31.34
2018-07-25T09:29:34.025Z,31.53
2018-07-25T09:30:33.995Z,31.53
2018-07-25T09:31:33.889Z,31.52
2018-07-25T09:32:33.911Z,31.61
2018-07-25T09:33:33.766Z,31.68
2018-07-25T09:34:33.825Z,31.73
2018-07-25T09:35:33.634Z,31.80
2018-07-25T09:36:33.572Z,31.76
2018-07-25T09:37:33.637Z,31.70
2018-07-25T09:38:33.446Z,31.75
2018-07-25T09:39:33.448Z,31.66
2018-07-25T09:40:33.325Z,31.70
2018-07-25T09:41:33.356Z,31.79
2018-07-25T09:42:33.195Z,31.63
2018-07-25T09:43:33.162Z,31.39
2018-07-25T09:44:33.068Z,31.20
2018-07-25T09:45:33.076Z,31.15
2018-07-25T09:46:32.956Z,31.21
2018-07-25T09:47:32.985Z,31.16
2018-07-25T09:48:32.829Z,31.23
2018-07-25T09:49:32.822Z,31.39
2018-07-25T09:50:32.692Z,31.48
2018-07-25T09:51:32.708Z,31.70
2018-07-25T09:52:32.565Z,31.87
2018-07-25T09:53:32.643Z,31.95
2018-07-25T09:54:32.434Z,31.89
2018-07-25T09:55:32.428Z,32.02
2018-07-25T09:56:32.310Z,32.02
2018-07-25T09:57:32.341Z,32.01
2018-07-25T09:58:32.183Z,32.05
2018-07-25T09:59:32.250Z,32.23
2018-07-25T10:00:32.064Z,32.21
2018-07-25T10:01:32.061Z,32.27
2018-07-25T10:02:31.960Z,32.36
2018-07-25T10:03:31.972Z,32.40
2018-07-25T10:04:31.813Z,32.38
2018-07-25T10:05:31.767Z,32.18
2018-07-25T10:06:31.794Z,31.82
2018-07-25T10:07:31.662Z,31.86
2018-07-25T10:08:31.599Z,31.90
2018-07-25T10:09:31.500Z,32.06
2018-07-25T10:10:31.533Z,32.18
2018-07-25T10:11:31.374Z,32.28
2018-07-25T10:12:31.343Z,32.36
2018-07-25T10:13:31.343Z,32.38
2018-07-25T10:14:31.212Z,32.47
2018-07-25T10:15:31.233Z,32.47
2018-07-25T10:16:31.063Z,32.54
2018-07-25T10:17:31.053Z,32.61
2018-07-25T10:18:30.943Z,32.62
2018-07-25T10:19:30.956Z,32.65
2018-07-25T10:20:30.825Z,32.69
2018-07-25T10:21:30.878Z,32.77
2018-07-25T10:22:30.691Z,32.75
2018-07-25T10:23:30.676Z,32.73
2018-07-25T10:24:30.590Z,32.82
2018-07-25T10:25:30.592Z,32.80
2018-07-25T10:26:30.440Z,32.80
2018-07-25T10:27:30.552Z,32.88
2018-07-25T10:28:30.445Z,32.92
2018-07-25T10:29:30.308Z,32.79
2018-07-25T10:30:30.191Z,32.82
2018-07-25T10:31:30.236Z,32.75
2018-07-25T10:32:30.066Z,32.58
2018-07-25T10:33:30.031Z,32.53
2018-07-25T10:34:29.950Z,32.45
2018-07-25T10:35:29.942Z,32.33
2018-07-25T10:36:29.817Z,32.11
2018-07-25T10:37:29.854Z,32.01
2018-07-25T10:38:29.700Z,31.96
2018-07-25T10:39:29.630Z,31.94
2018-07-25T10:40:29.571Z,31.96
2018-07-25T10:41:29.575Z,31.91
2018-07-25T10:42:29.494Z,32.05
2018-07-25T10:43:29.488Z,32.14
2018-07-25T10:44:29.322Z,32.24
2018-07-25T10:45:29.396Z,32.32
2018-07-25T10:46:29.197Z,32.45
2018-07-25T10:47:29.212Z,32.57
2018-07-25T10:48:29.073Z,32.61
2018-07-25T10:49:29.123Z,32.67
2018-07-25T10:50:28.948Z,32.69
2018-07-25T10:51:28.924Z,32.77
2018-07-25T10:52:28.839Z,32.75
2018-07-25T10:53:28.839Z,32.76
2018-07-25T10:54:28.699Z,32.76
2018-07-25T10:55:28.747Z,32.80
2018-07-25T10:56:28.618Z,32.79
2018-07-25T10:57:28.666Z,32.88
2018-07-25T10:58:28.456Z,32.98
2018-07-25T10:59:28.471Z,32.99
2018-07-25T11:00:28.330Z,33.16
2018-07-25T11:01:28.267Z,33.11
2018-07-25T11:02:28.204Z,32.99
2018-07-25T11:03:28.190Z,32.92
2018-07-25T11:04:28.080Z,33.01
2018-07-25T11:05:28.104Z,33.06
2018-07-25T11:06:27.962Z,33.16
2018-07-25T11:07:28.014Z,33.24
2018-07-25T11:08:27.834Z,33.17
2018-07-25T11:09:27.820Z,33.19
2018-07-25T11:10:27.711Z,33.24
2018-07-25T11:11:27.737Z,33.21
2018-07-25T11:12:27.589Z,33.36
2018-07-25T11:13:27.645Z,33.45
2018-07-25T11:14:27.462Z,33.48
2018-07-25T11:15:27.454Z,33.40
2018-07-25T11:16:27.399Z,33.42
2018-07-25T11:17:27.281Z,33.56
2018-07-25T11:18:27.217Z,33.55
2018-07-25T11:19:27.277Z,33.55
2018-07-25T11:20:27.094Z,33.52
2018-07-25T11:21:27.086Z,33.52
2018-07-25T11:22:26.969Z,33.51
2018-07-25T11:23:26.997Z,33.42
2018-07-25T11:24:26.848Z,33.42
2018-07-25T11:25:26.909Z,33.40
2018-07-25T11:26:26.727Z,33.40
2018-07-25T11:27:26.719Z,33.36
2018-07-25T11:28:26.605Z,33.42
2018-07-25T11:29:26.628Z,33.49
2018-07-25T11:30:26.475Z,33.61
2018-07-25T11:31:26.545Z,33.61
2018-07-25T11:32:26.385Z,33.54
2018-07-25T11:33:26.350Z,33.52
2018-07-25T11:34:26.234Z,33.60
2018-07-25T11:35:26.260Z,33.60
2018-07-25T11:36:26.111Z,33.60
2018-07-25T11:37:26.180Z,33.55
2018-07-25T11:38:25.996Z,33.64
2018-07-25T11:39:25.997Z,33.67
2018-07-25T11:40:25.864Z,33.55
2018-07-25T11:41:25.805Z,33.34
2018-07-25T11:42:25.902Z,33.40
2018-07-25T11:43:25.684Z,33.45
2018-07-25T11:44:25.709Z,33.40
2018-07-25T11:45:25.563Z,33.55
2018-07-25T11:46:25.625Z,33.61
2018-07-25T11:47:25.441Z,33.58
2018-07-25T11:48:25.376Z,33.52
2018-07-25T11:49:25.317Z,33.54
2018-07-25T11:50:25.408Z,33.60
2018-07-25T11:51:25.192Z,33.73
2018-07-25T11:52:25.252Z,33.74
2018-07-25T11:53:25.073Z,33.71
2018-07-25T11:54:25.166Z,33.74
2018-07-25T11:55:25.021Z,33.82
2018-07-25T11:56:24.970Z,33.79
2018-07-25T11:57:24.829Z,33.74
2018-07-25T11:58:24.882Z,33.58
2018-07-25T11:59:24.701Z,33.52
2018-07-25T12:00:24.797Z,33.45
2018-07-25T12:01:24.597Z,33.36
2018-07-25T12:02:24.602Z,33.34
2018-07-25T12:03:24.459Z,33.33
2018-07-25T12:04:24.516Z,33.34
2018-07-25T12:05:24.345Z,33.33
2018-07-25T12:06:24.331Z,33.32
2018-07-25T12:07:24.253Z,33.33
2018-07-25T12:08:24.250Z,33.47
2018-07-25T12:09:24.090Z,33.61
2018-07-25T12:10:24.151Z,33.67
2018-07-25T12:11:23.966Z,33.82
2018-07-25T12:12:24.059Z,34.03
2018-07-25T12:13:23.845Z,33.92
2018-07-25T12:14:23.870Z,33.92
2018-07-25T12:15:23.723Z,33.67
2018-07-25T12:16:23.783Z,33.76
2018-07-25T12:17:23.605Z,33.86
2018-07-25T12:18:23.693Z,33.91
2018-07-25T12:19:23.478Z,33.97
2018-07-25T12:20:23.499Z,33.91
2018-07-25T12:21:23.355Z,33.91
2018-07-25T12:22:23.411Z,33.85
2018-07-25T12:23:23.239Z,33.56
2018-07-25T12:24:23.321Z,33.58
2018-07-25T12:25:23.112Z,33.33
2018-07-25T12:26:23.148Z,33.34
2018-07-25T12:27:22.991Z,33.40
2018-07-25T12:28:22.931Z,33.61
2018-07-25T12:29:22.866Z,33.58
2018-07-25T12:30:22.855Z,33.60
2018-07-25T12:31:22.746Z,33.69
2018-07-25T12:32:22.718Z,33.88
2018-07-25T12:33:22.622Z,33.98
2018-07-25T12:35:22.504Z,34.11
2018-07-25T12:36:22.588Z,34.20
2018-07-25T12:37:22.383Z,34.29
2018-07-25T12:38:22.399Z,34.30
2018-07-25T12:39:22.265Z,34.44
2018-07-25T12:40:22.310Z,34.51
2018-07-25T12:41:22.141Z,34.56
2018-07-25T12:42:22.221Z,34.62
2018-07-25T12:43:22.020Z,34.77
2018-07-25T12:44:22.031Z,34.75
2018-07-25T12:45:21.903Z,34.75
2018-07-25T12:46:21.938Z,34.75
2018-07-25T12:47:21.775Z,34.59
2018-07-25T12:48:21.867Z,34.62
2018-07-25T12:49:21.652Z,34.62
2018-07-25T12:50:21.659Z,34.76
2018-07-25T12:51:21.534Z,34.72
2018-07-25T12:52:21.579Z,34.79